sensor_id;sensor_type;location;lat;lon;timestamp;temperature;humidity
64652;HTU21D;51062;45.120;37.660;2024-01-11T00:01:14;1.16;91.91
64652;HTU21D;51062;45.120;37.660;2024-01-11T00:03:39;1.16;91.93
64652;HTU21D;51062;45.120;37.660;2024-01-11T00:06:05;1.16;91.95
64652;HTU21D;51062;45.120;37.660;2024-01-11T00:08:31;1.18;92.01
64652;HTU21D;51062;45.120;37.660;2024-01-11T00:10:57;1.19;92.00
64652;HTU21D;51062;45.120;37.660;2024-01-11T00:13:23;1.20;91.88
64652;HTU21D;51062;45.120;37.660;2024-01-11T00:15:49;1.19;91.89
64652;HTU21D;51062;45.120;37.660;2024-01-11T00:18:14;1.19;91.89
64652;HTU21D;51062;45.120;37.660;2024-01-11T00:20:40;1.18;91.85
64652;HTU21D;51062;45.120;37.660;2024-01-11T00:23:06;1.19;91.85
64652;HTU21D;51062;45.120;37.660;2024-01-11T00:25:32;1.16;91.87
64652;HTU21D;51062;45.120;37.660;2024-01-11T00:27:58;1.17;91.83
64652;HTU21D;51062;45.120;37.660;2024-01-11T00:30:24;1.17;91.79
64652;HTU21D;51062;45.120;37.660;2024-01-11T00:32:49;1.17;91.79
64652;HTU21D;51062;45.120;37.660;2024-01-11T00:35:15;1.16;91.72
64652;HTU21D;51062;45.120;37.660;2024-01-11T00:37:41;1.13;91.76
64652;HTU21D;51062;45.120;37.660;2024-01-11T00:40:07;1.14;91.77
64652;HTU21D;51062;45.120;37.660;2024-01-11T00:42:33;1.14;91.73
64652;HTU21D;51062;45.120;37.660;2024-01-11T00:45:00;1.13;91.70
64652;HTU21D;51062;45.120;37.660;2024-01-11T00:47:26;1.11;91.72
64652;HTU21D;51062;45.120;37.660;2024-01-11T00:49:52;1.11;91.69
64652;HTU21D;51062;45.120;37.660;2024-01-11T00:52:18;1.12;91.69
64652;HTU21D;51062;45.120;37.660;2024-01-11T00:54:44;1.11;91.70
64652;HTU21D;51062;45.120;37.660;2024-01-11T00:57:10;1.13;91.69
64652;HTU21D;51062;45.120;37.660;2024-01-11T00:59:36;1.12;91.69
64652;HTU21D;51062;45.120;37.660;2024-01-11T01:02:02;1.13;91.69
64652;HTU21D;51062;45.120;37.660;2024-01-11T01:04:27;1.10;91.72
64652;HTU21D;51062;45.120;37.660;2024-01-11T01:06:53;1.12;91.69
64652;HTU21D;51062;45.120;37.660;2024-01-11T01:09:19;1.11;91.67
64652;HTU21D;51062;45.120;37.660;2024-01-11T01:11:45;1.12;91.66
64652;HTU21D;51062;45.120;37.660;2024-01-11T01:14:11;1.08;91.63
64652;HTU21D;51062;45.120;37.660;2024-01-11T01:16:37;1.08;91.60
64652;HTU21D;51062;45.120;37.660;2024-01-11T01:19:02;1.08;91.58
64652;HTU21D;51062;45.120;37.660;2024-01-11T01:21:28;1.06;91.55
64652;HTU21D;51062;45.120;37.660;2024-01-11T01:23:54;1.06;91.55
64652;HTU21D;51062;45.120;37.660;2024-01-11T01:26:20;1.06;91.53
64652;HTU21D;51062;45.120;37.660;2024-01-11T01:28:46;1.06;91.52
64652;HTU21D;51062;45.120;37.660;2024-01-11T01:31:12;1.06;91.44
64652;HTU21D;51062;45.120;37.660;2024-01-11T01:33:39;1.03;91.41
64652;HTU21D;51062;45.120;37.660;2024-01-11T01:36:07;1.04;91.39
64652;HTU21D;51062;45.120;37.660;2024-01-11T01:38:34;1.02;91.42
64652;HTU21D;51062;45.120;37.660;2024-01-11T01:40:59;1.02;91.42
64652;HTU21D;51062;45.120;37.660;2024-01-11T01:43:25;1.02;91.43
64652;HTU21D;51062;45.120;37.660;2024-01-11T01:45:51;1.02;91.49
64652;HTU21D;51062;45.120;37.660;2024-01-11T01:48:17;1.03;91.53
64652;HTU21D;51062;45.120;37.660;2024-01-11T01:50:43;1.04;91.50
64652;HTU21D;51062;45.120;37.660;2024-01-11T01:53:11;1.03;91.50
64652;HTU21D;51062;45.120;37.660;2024-01-11T01:55:36;1.04;91.48
64652;HTU21D;51062;45.120;37.660;2024-01-11T01:58:02;1.03;91.53
64652;HTU21D;51062;45.120;37.660;2024-01-11T02:00:29;1.05;91.56
64652;HTU21D;51062;45.120;37.660;2024-01-11T02:02:55;1.05;91.56
64652;HTU21D;51062;45.120;37.660;2024-01-11T02:05:21;1.04;91.59
64652;HTU21D;51062;45.120;37.660;2024-01-11T02:07:47;1.06;91.64
64652;HTU21D;51062;45.120;37.660;2024-01-11T02:10:13;1.06;91.60
64652;HTU21D;51062;45.120;37.660;2024-01-11T02:12:38;1.06;91.60
64652;HTU21D;51062;45.120;37.660;2024-01-11T02:15:05;1.05;91.53
64652;HTU21D;51062;45.120;37.660;2024-01-11T02:17:32;1.04;91.53
64652;HTU21D;51062;45.120;37.660;2024-01-11T02:19:58;1.03;91.57
64652;HTU21D;51062;45.120;37.660;2024-01-11T02:22:24;1.02;91.57
64652;HTU21D;51062;45.120;37.660;2024-01-11T02:24:52;1.03;91.58
64652;HTU21D;51062;45.120;37.660;2024-01-11T02:27:18;1.04;91.56
64652;HTU21D;51062;45.120;37.660;2024-01-11T02:29:44;1.06;91.57
64652;HTU21D;51062;45.120;37.660;2024-01-11T02:32:10;1.06;91.59
64652;HTU21D;51062;45.120;37.660;2024-01-11T02:34:37;1.06;91.54
64652;HTU21D;51062;45.120;37.660;2024-01-11T02:37:04;1.06;91.54
64652;HTU21D;51062;45.120;37.660;2024-01-11T02:39:29;1.05;91.53
64652;HTU21D;51062;45.120;37.660;2024-01-11T02:41:56;1.05;91.56
64652;HTU21D;51062;45.120;37.660;2024-01-11T02:44:23;1.05;91.50
64652;HTU21D;51062;45.120;37.660;2024-01-11T02:46:49;1.05;91.55
64652;HTU21D;51062;45.120;37.660;2024-01-11T02:49:15;1.07;91.53
64652;HTU21D;51062;45.120;37.660;2024-01-11T02:51:41;1.07;91.53
64652;HTU21D;51062;45.120;37.660;2024-01-11T02:54:06;1.06;91.52
64652;HTU21D;51062;45.120;37.660;2024-01-11T02:56:32;1.07;91.53
64652;HTU21D;51062;45.120;37.660;2024-01-11T02:58:58;1.10;91.58
64652;HTU21D;51062;45.120;37.660;2024-01-11T03:01:24;1.11;91.58
64652;HTU21D;51062;45.120;37.660;2024-01-11T03:03:50;1.13;91.63
64652;HTU21D;51062;45.120;37.660;2024-01-11T03:06:16;1.19;91.68
64652;HTU21D;51062;45.120;37.660;2024-01-11T03:08:47;1.21;91.59
64652;HTU21D;51062;45.120;37.660;2024-01-11T03:11:13;1.22;91.58
64652;HTU21D;51062;45.120;37.660;2024-01-11T03:13:39;1.23;91.53
64652;HTU21D;51062;45.120;37.660;2024-01-11T03:16:05;1.23;91.55
64652;HTU21D;51062;45.120;37.660;2024-01-11T03:18:31;1.23;91.52
64652;HTU21D;51062;45.120;37.660;2024-01-11T03:20:57;1.24;91.55
64652;HTU21D;51062;45.120;37.660;2024-01-11T03:23:22;1.25;91.60
64652;HTU21D;51062;45.120;37.660;2024-01-11T03:25:48;1.27;91.62
64652;HTU21D;51062;45.120;37.660;2024-01-11T03:28:14;1.29;91.60
64652;HTU21D;51062;45.120;37.660;2024-01-11T03:30:40;1.33;91.59
64652;HTU21D;51062;45.120;37.660;2024-01-11T03:33:06;1.31;91.56
64652;HTU21D;51062;45.120;37.660;2024-01-11T03:35:32;1.32;91.50
64652;HTU21D;51062;45.120;37.660;2024-01-11T03:37:58;1.31;91.53
64652;HTU21D;51062;45.120;37.660;2024-01-11T03:40:23;1.34;91.62
64652;HTU21D;51062;45.120;37.660;2024-01-11T03:42:49;1.37;91.61
64652;HTU21D;51062;45.120;37.660;2024-01-11T03:45:17;1.38;91.54
64652;HTU21D;51062;45.120;37.660;2024-01-11T03:47:43;1.39;91.50
64652;HTU21D;51062;45.120;37.660;2024-01-11T03:50:09;1.39;91.47
64652;HTU21D;51062;45.120;37.660;2024-01-11T03:52:35;1.38;91.52
64652;HTU21D;51062;45.120;37.660;2024-01-11T03:55:01;1.39;91.53
64652;HTU21D;51062;45.120;37.660;2024-01-11T03:57:27;1.42;91.61
64652;HTU21D;51062;45.120;37.660;2024-01-11T03:59:53;1.43;91.61
64652;HTU21D;51062;45.120;37.660;2024-01-11T04:02:19;1.47;91.67
64652;HTU21D;51062;45.120;37.660;2024-01-11T04:04:45;1.50;91.75
64652;HTU21D;51062;45.120;37.660;2024-01-11T04:07:10;1.53;91.76
64652;HTU21D;51062;45.120;37.660;2024-01-11T04:09:37;1.54;91.76
64652;HTU21D;51062;45.120;37.660;2024-01-11T04:12:04;1.57;91.73
64652;HTU21D;51062;45.120;37.660;2024-01-11T04:14:30;1.60;91.72
64652;HTU21D;51062;45.120;37.660;2024-01-11T04:16:56;1.60;91.73
64652;HTU21D;51062;45.120;37.660;2024-01-11T04:19:22;1.62;91.77
64652;HTU21D;51062;45.120;37.660;2024-01-11T04:21:47;1.65;91.79
64652;HTU21D;51062;45.120;37.660;2024-01-11T04:24:13;1.65;91.78
64652;HTU21D;51062;45.120;37.660;2024-01-11T04:26:39;1.66;91.78
64652;HTU21D;51062;45.120;37.660;2024-01-11T04:29:05;1.67;91.80
64652;HTU21D;51062;45.120;37.660;2024-01-11T04:31:31;1.68;91.82
64652;HTU21D;51062;45.120;37.660;2024-01-11T04:33:57;1.69;91.82
64652;HTU21D;51062;45.120;37.660;2024-01-11T04:36:23;1.73;91.88
64652;HTU21D;51062;45.120;37.660;2024-01-11T04:38:48;1.76;91.89
64652;HTU21D;51062;45.120;37.660;2024-01-11T04:41:14;1.79;91.87
64652;HTU21D;51062;45.120;37.660;2024-01-11T04:43:41;1.78;91.76
64652;HTU21D;51062;45.120;37.660;2024-01-11T04:46:20;1.77;91.73
64652;HTU21D;51062;45.120;37.660;2024-01-11T04:48:46;1.77;91.76
64652;HTU21D;51062;45.120;37.660;2024-01-11T04:51:12;1.76;91.76
64652;HTU21D;51062;45.120;37.660;2024-01-11T04:53:38;0.00;91.76
64652;HTU21D;51062;45.120;37.660;2024-01-11T04:56:06;1.77;91.75
64652;HTU21D;51062;45.120;37.660;2024-01-11T04:58:32;1.78;91.77
64652;HTU21D;51062;45.120;37.660;2024-01-11T05:00:58;0.00;91.77
64652;HTU21D;51062;45.120;37.660;2024-01-11T05:03:24;1.81;91.70
64652;HTU21D;51062;45.120;37.660;2024-01-11T05:05:49;1.81;91.59
64652;HTU21D;51062;45.120;37.660;2024-01-11T05:08:15;1.81;91.64
64652;HTU21D;51062;45.120;37.660;2024-01-11T05:10:41;1.82;91.68
64652;HTU21D;51062;45.120;37.660;2024-01-11T05:13:07;1.83;91.70
64652;HTU21D;51062;45.120;37.660;2024-01-11T05:15:34;1.86;91.69
64652;HTU21D;51062;45.120;37.660;2024-01-11T05:18:00;1.86;91.62
64652;HTU21D;51062;45.120;37.660;2024-01-11T05:20:26;1.87;91.63
64652;HTU21D;51062;45.120;37.660;2024-01-11T05:22:51;1.88;91.75
64652;HTU21D;51062;45.120;37.660;2024-01-11T05:25:17;1.92;91.79
64652;HTU21D;51062;45.120;37.660;2024-01-11T05:27:43;1.93;91.83
64652;HTU21D;51062;45.120;37.660;2024-01-11T05:30:09;1.95;91.89
64652;HTU21D;51062;45.120;37.660;2024-01-11T05:32:35;1.96;91.87
64652;HTU21D;51062;45.120;37.660;2024-01-11T05:35:01;1.99;91.92
64652;HTU21D;51062;45.120;37.660;2024-01-11T05:37:27;2.02;92.01
64652;HTU21D;51062;45.120;37.660;2024-01-11T05:39:52;2.09;92.15
64652;HTU21D;51062;45.120;37.660;2024-01-11T05:42:19;2.16;92.18
64652;HTU21D;51062;45.120;37.660;2024-01-11T05:44:45;2.23;92.09
64652;HTU21D;51062;45.120;37.660;2024-01-11T05:47:11;2.30;92.00
64652;HTU21D;51062;45.120;37.660;2024-01-11T05:49:37;2.35;91.85
64652;HTU21D;51062;45.120;37.660;2024-01-11T05:52:03;2.39;91.85
64652;HTU21D;51062;45.120;37.660;2024-01-11T05:54:29;2.47;92.14
64652;HTU21D;51062;45.120;37.660;2024-01-11T05:56:55;2.60;92.45
64652;HTU21D;51062;45.120;37.660;2024-01-11T05:59:25;2.78;92.66
64652;HTU21D;51062;45.120;37.660;2024-01-11T06:01:50;2.89;92.63
64652;HTU21D;51062;45.120;37.660;2024-01-11T06:04:16;2.95;92.65
64652;HTU21D;51062;45.120;37.660;2024-01-11T06:06:42;2.98;92.66
64652;HTU21D;51062;45.120;37.660;2024-01-11T06:09:08;3.00;92.71
64652;HTU21D;51062;45.120;37.660;2024-01-11T06:11:35;3.02;92.66
64652;HTU21D;51062;45.120;37.660;2024-01-11T06:14:01;3.03;92.61
64652;HTU21D;51062;45.120;37.660;2024-01-11T06:16:28;3.03;92.52
64652;HTU21D;51062;45.120;37.660;2024-01-11T06:18:54;3.03;92.70
64652;HTU21D;51062;45.120;37.660;2024-01-11T06:21:20;3.05;92.69
64652;HTU21D;51062;45.120;37.660;2024-01-11T06:23:46;3.11;92.78
64652;HTU21D;51062;45.120;37.660;2024-01-11T06:26:12;3.18;92.75
64652;HTU21D;51062;45.120;37.660;2024-01-11T06:28:37;3.30;92.77
64652;HTU21D;51062;45.120;37.660;2024-01-11T06:31:03;3.35;92.75
64652;HTU21D;51062;45.120;37.660;2024-01-11T06:33:29;3.40;92.73
64652;HTU21D;51062;45.120;37.660;2024-01-11T06:35:55;3.45;92.66
64652;HTU21D;51062;45.120;37.660;2024-01-11T06:38:24;3.49;92.64
64652;HTU21D;51062;45.120;37.660;2024-01-11T06:40:50;3.53;92.61
64652;HTU21D;51062;45.120;37.660;2024-01-11T06:43:15;3.53;92.56
64652;HTU21D;51062;45.120;37.660;2024-01-11T06:45:42;3.57;92.60
64652;HTU21D;51062;45.120;37.660;2024-01-11T06:48:08;3.62;92.90
64652;HTU21D;51062;45.120;37.660;2024-01-11T06:50:34;3.76;93.11
64652;HTU21D;51062;45.120;37.660;2024-01-11T06:53:00;3.93;93.18
64652;HTU21D;51062;45.120;37.660;2024-01-11T06:55:27;4.08;93.19
64652;HTU21D;51062;45.120;37.660;2024-01-11T06:57:53;4.18;93.21
64652;HTU21D;51062;45.120;37.660;2024-01-11T07:00:19;4.28;93.30
64652;HTU21D;51062;45.120;37.660;2024-01-11T07:02:45;4.37;93.32
64652;HTU21D;51062;45.120;37.660;2024-01-11T07:05:11;4.45;93.40
64652;HTU21D;51062;45.120;37.660;2024-01-11T07:07:37;4.50;93.43
64652;HTU21D;51062;45.120;37.660;2024-01-11T07:10:03;4.65;93.40
64652;HTU21D;51062;45.120;37.660;2024-01-11T07:12:31;4.97;92.80
64652;HTU21D;51062;45.120;37.660;2024-01-11T07:14:58;5.33;92.26
64652;HTU21D;51062;45.120;37.660;2024-01-11T07:17:23;5.62;91.69
64652;HTU21D;51062;45.120;37.660;2024-01-11T07:19:50;5.80;91.41
64652;HTU21D;51062;45.120;37.660;2024-01-11T07:22:16;5.99;91.12
64652;HTU21D;51062;45.120;37.660;2024-01-11T07:24:42;6.30;90.90
64652;HTU21D;51062;45.120;37.660;2024-01-11T07:27:08;6.58;90.18
64652;HTU21D;51062;45.120;37.660;2024-01-11T07:29:34;6.44;90.40
64652;HTU21D;51062;45.120;37.660;2024-01-11T07:32:00;6.13;90.96
64652;HTU21D;51062;45.120;37.660;2024-01-11T07:34:27;5.91;91.53
64652;HTU21D;51062;45.120;37.660;2024-01-11T07:36:53;5.74;91.95
64652;HTU21D;51062;45.120;37.660;2024-01-11T07:39:19;5.57;92.23
64652;HTU21D;51062;45.120;37.660;2024-01-11T07:41:45;5.40;92.40
64652;HTU21D;51062;45.120;37.660;2024-01-11T07:44:11;5.22;92.50
64652;HTU21D;51062;45.120;37.660;2024-01-11T07:46:37;5.07;92.64
64652;HTU21D;51062;45.120;37.660;2024-01-11T07:49:03;5.01;92.75
64652;HTU21D;51062;45.120;37.660;2024-01-11T07:51:29;4.95;92.81
64652;HTU21D;51062;45.120;37.660;2024-01-11T07:53:54;4.91;92.92
64652;HTU21D;51062;45.120;37.660;2024-01-11T07:56:20;4.88;93.04
64652;HTU21D;51062;45.120;37.660;2024-01-11T07:58:47;4.89;93.17
64652;HTU21D;51062;45.120;37.660;2024-01-11T08:01:15;4.93;93.28
64652;HTU21D;51062;45.120;37.660;2024-01-11T08:03:41;4.95;93.40
64652;HTU21D;51062;45.120;37.660;2024-01-11T08:06:10;4.98;93.52
64652;HTU21D;51062;45.120;37.660;2024-01-11T08:08:36;5.04;93.63
64652;HTU21D;51062;45.120;37.660;2024-01-11T08:11:04;5.10;93.72
64652;HTU21D;51062;45.120;37.660;2024-01-11T08:13:30;5.13;93.85
64652;HTU21D;51062;45.120;37.660;2024-01-11T08:15:57;5.20;93.98
64652;HTU21D;51062;45.120;37.660;2024-01-11T08:18:23;5.22;94.00
64652;HTU21D;51062;45.120;37.660;2024-01-11T08:20:49;5.15;93.65
64652;HTU21D;51062;45.120;37.660;2024-01-11T08:23:15;5.01;93.33
64652;HTU21D;51062;45.120;37.660;2024-01-11T08:25:41;4.90;93.09
64652;HTU21D;51062;45.120;37.660;2024-01-11T08:28:07;4.75;92.83
64652;HTU21D;51062;45.120;37.660;2024-01-11T08:30:33;4.66;92.72
64652;HTU21D;51062;45.120;37.660;2024-01-11T08:32:59;4.57;92.63
64652;HTU21D;51062;45.120;37.660;2024-01-11T08:35:25;4.43;92.48
64652;HTU21D;51062;45.120;37.660;2024-01-11T08:37:50;4.33;92.63
64652;HTU21D;51062;45.120;37.660;2024-01-11T08:40:16;4.24;92.66
64652;HTU21D;51062;45.120;37.660;2024-01-11T08:42:42;4.16;92.53
64652;HTU21D;51062;45.120;37.660;2024-01-11T08:45:08;4.06;92.53
64652;HTU21D;51062;45.120;37.660;2024-01-11T08:47:34;4.01;92.76
64652;HTU21D;51062;45.120;37.660;2024-01-11T08:50:00;4.03;92.97
64652;HTU21D;51062;45.120;37.660;2024-01-11T08:52:26;4.01;93.02
64652;HTU21D;51062;45.120;37.660;2024-01-11T08:54:52;4.01;93.12
64652;HTU21D;51062;45.120;37.660;2024-01-11T08:57:18;4.02;93.21
64652;HTU21D;51062;45.120;37.660;2024-01-11T08:59:44;4.05;93.31
64652;HTU21D;51062;45.120;37.660;2024-01-11T09:02:10;4.07;93.27
64652;HTU21D;51062;45.120;37.660;2024-01-11T09:04:36;4.02;93.08
64652;HTU21D;51062;45.120;37.660;2024-01-11T09:07:02;3.95;92.89
64652;HTU21D;51062;45.120;37.660;2024-01-11T09:09:28;3.88;92.88
64652;HTU21D;51062;45.120;37.660;2024-01-11T09:11:54;3.86;92.95
64652;HTU21D;51062;45.120;37.660;2024-01-11T09:14:19;3.83;92.89
64652;HTU21D;51062;45.120;37.660;2024-01-11T09:16:45;3.76;92.84
64652;HTU21D;51062;45.120;37.660;2024-01-11T09:19:14;3.73;92.90
64652;HTU21D;51062;45.120;37.660;2024-01-11T09:21:40;3.74;93.11
64652;HTU21D;51062;45.120;37.660;2024-01-11T09:24:07;3.78;93.21
64652;HTU21D;51062;45.120;37.660;2024-01-11T09:26:33;3.78;93.20
64652;HTU21D;51062;45.120;37.660;2024-01-11T09:29:01;3.75;93.07
64652;HTU21D;51062;45.120;37.660;2024-01-11T09:31:27;3.73;93.08
64652;HTU21D;51062;45.120;37.660;2024-01-11T09:33:53;3.67;92.88
64652;HTU21D;51062;45.120;37.660;2024-01-11T09:36:19;3.61;92.87
64652;HTU21D;51062;45.120;37.660;2024-01-11T09:38:45;3.54;92.75
64652;HTU21D;51062;45.120;37.660;2024-01-11T09:41:12;3.49;92.82
64652;HTU21D;51062;45.120;37.660;2024-01-11T09:43:40;3.48;92.88
64652;HTU21D;51062;45.120;37.660;2024-01-11T09:46:06;3.46;92.95
64652;HTU21D;51062;45.120;37.660;2024-01-11T09:48:32;3.45;92.97
64652;HTU21D;51062;45.120;37.660;2024-01-11T09:50:58;3.44;92.98
64652;HTU21D;51062;45.120;37.660;2024-01-11T09:53:24;3.44;93.00
64652;HTU21D;51062;45.120;37.660;2024-01-11T09:55:52;3.42;92.98
64652;HTU21D;51062;45.120;37.660;2024-01-11T09:58:19;3.40;92.95
64652;HTU21D;51062;45.120;37.660;2024-01-11T10:00:46;3.40;93.01
64652;HTU21D;51062;45.120;37.660;2024-01-11T10:03:12;3.41;93.04
64652;HTU21D;51062;45.120;37.660;2024-01-11T10:05:38;3.40;92.98
64652;HTU21D;51062;45.120;37.660;2024-01-11T10:08:05;3.41;92.98
64652;HTU21D;51062;45.120;37.660;2024-01-11T10:10:31;3.40;93.04
64652;HTU21D;51062;45.120;37.660;2024-01-11T10:12:58;3.39;92.98
64652;HTU21D;51062;45.120;37.660;2024-01-11T10:15:24;3.35;92.89
64652;HTU21D;51062;45.120;37.660;2024-01-11T10:17:50;3.35;92.93
64652;HTU21D;51062;45.120;37.660;2024-01-11T10:20:15;3.34;92.88
64652;HTU21D;51062;45.120;37.660;2024-01-11T10:22:42;3.31;92.87
64652;HTU21D;51062;45.120;37.660;2024-01-11T10:25:09;3.30;92.85
64652;HTU21D;51062;45.120;37.660;2024-01-11T10:27:37;3.29;92.87
64652;HTU21D;51062;45.120;37.660;2024-01-11T10:30:03;3.29;92.92
64652;HTU21D;51062;45.120;37.660;2024-01-11T10:32:29;3.30;92.94
64652;HTU21D;51062;45.120;37.660;2024-01-11T10:34:54;3.33;93.03
64652;HTU21D;51062;45.120;37.660;2024-01-11T10:37:21;3.36;93.06
64652;HTU21D;51062;45.120;37.660;2024-01-11T10:39:48;3.39;93.06
64652;HTU21D;51062;45.120;37.660;2024-01-11T10:42:16;3.40;93.05
64652;HTU21D;51062;45.120;37.660;2024-01-11T10:44:43;3.41;93.01
64652;HTU21D;51062;45.120;37.660;2024-01-11T10:47:12;3.40;93.02
64652;HTU21D;51062;45.120;37.660;2024-01-11T10:49:39;3.42;93.11
64652;HTU21D;51062;45.120;37.660;2024-01-11T10:52:07;3.48;93.26
64652;HTU21D;51062;45.120;37.660;2024-01-11T10:54:33;3.55;93.26
64652;HTU21D;51062;45.120;37.660;2024-01-11T10:57:00;3.59;93.22
64652;HTU21D;51062;45.120;37.660;2024-01-11T10:59:29;3.60;93.16
64652;HTU21D;51062;45.120;37.660;2024-01-11T11:01:56;3.60;93.13
64652;HTU21D;51062;45.120;37.660;2024-01-11T11:04:24;3.59;93.09
64652;HTU21D;51062;45.120;37.660;2024-01-11T11:06:56;3.57;93.09
64652;HTU21D;51062;45.120;37.660;2024-01-11T11:09:25;3.55;93.11
64652;HTU21D;51062;45.120;37.660;2024-01-11T11:11:53;3.56;93.07
64652;HTU21D;51062;45.120;37.660;2024-01-11T11:14:19;3.57;93.14
64652;HTU21D;51062;45.120;37.660;2024-01-11T11:16:46;3.59;93.16
64652;HTU21D;51062;45.120;37.660;2024-01-11T11:19:12;3.61;93.14
64652;HTU21D;51062;45.120;37.660;2024-01-11T11:21:42;3.61;93.02
64652;HTU21D;51062;45.120;37.660;2024-01-11T11:24:08;3.58;92.92
64652;HTU21D;51062;45.120;37.660;2024-01-11T11:26:34;3.57;92.98
64652;HTU21D;51062;45.120;37.660;2024-01-11T11:29:00;3.58;93.05
64652;HTU21D;51062;45.120;37.660;2024-01-11T11:31:45;3.60;93.02
64652;HTU21D;51062;45.120;37.660;2024-01-11T11:34:13;3.60;93.00
64652;HTU21D;51062;45.120;37.660;2024-01-11T11:36:42;3.58;92.95
64652;HTU21D;51062;45.120;37.660;2024-01-11T11:39:11;3.57;92.88
64652;HTU21D;51062;45.120;37.660;2024-01-11T11:41:37;3.54;92.85
64652;HTU21D;51062;45.120;37.660;2024-01-11T11:44:04;3.53;92.82
64652;HTU21D;51062;45.120;37.660;2024-01-11T11:46:33;3.50;92.84
64652;HTU21D;51062;45.120;37.660;2024-01-11T11:48:59;3.52;92.83
64652;HTU21D;51062;45.120;37.660;2024-01-11T11:51:25;3.48;92.85
64652;HTU21D;51062;45.120;37.660;2024-01-11T11:53:52;3.48;92.83
64652;HTU21D;51062;45.120;37.660;2024-01-11T11:56:18;3.48;92.85
64652;HTU21D;51062;45.120;37.660;2024-01-11T11:58:45;3.49;92.90
64652;HTU21D;51062;45.120;37.660;2024-01-11T12:01:13;3.52;92.95
64652;HTU21D;51062;45.120;37.660;2024-01-11T12:03:40;3.55;92.98
64652;HTU21D;51062;45.120;37.660;2024-01-11T12:06:07;3.56;93.01
64652;HTU21D;51062;45.120;37.660;2024-01-11T12:08:34;3.59;93.04
64652;HTU21D;51062;45.120;37.660;2024-01-11T12:11:01;3.63;93.07
64652;HTU21D;51062;45.120;37.660;2024-01-11T12:13:27;3.67;93.11
64652;HTU21D;51062;45.120;37.660;2024-01-11T12:15:53;3.70;93.11
64652;HTU21D;51062;45.120;37.660;2024-01-11T12:18:19;3.71;93.04
64652;HTU21D;51062;45.120;37.660;2024-01-11T12:20:44;3.71;93.04
64652;HTU21D;51062;45.120;37.660;2024-01-11T12:23:11;3.71;93.00
64652;HTU21D;51062;45.120;37.660;2024-01-11T12:25:40;3.73;93.08
64652;HTU21D;51062;45.120;37.660;2024-01-11T12:28:09;3.77;93.13
64652;HTU21D;51062;45.120;37.660;2024-01-11T12:30:35;3.79;93.13
64652;HTU21D;51062;45.120;37.660;2024-01-11T12:33:01;3.82;93.04
64652;HTU21D;51062;45.120;37.660;2024-01-11T12:35:27;3.83;93.04
64652;HTU21D;51062;45.120;37.660;2024-01-11T12:37:53;3.82;92.98
64652;HTU21D;51062;45.120;37.660;2024-01-11T12:40:20;3.82;93.00
64652;HTU21D;51062;45.120;37.660;2024-01-11T12:42:46;3.85;93.05
64652;HTU21D;51062;45.120;37.660;2024-01-11T12:45:15;3.88;93.04
64652;HTU21D;51062;45.120;37.660;2024-01-11T12:47:41;3.90;93.07
64652;HTU21D;51062;45.120;37.660;2024-01-11T12:50:07;3.93;93.13
64652;HTU21D;51062;45.120;37.660;2024-01-11T12:52:33;3.95;93.09
64652;HTU21D;51062;45.120;37.660;2024-01-11T12:54:59;3.98;93.09
64652;HTU21D;51062;45.120;37.660;2024-01-11T12:57:25;3.99;93.10
64652;HTU21D;51062;45.120;37.660;2024-01-11T12:59:52;4.00;93.02
64652;HTU21D;51062;45.120;37.660;2024-01-11T13:02:18;4.01;92.99
64652;HTU21D;51062;45.120;37.660;2024-01-11T13:04:45;3.98;92.95
64652;HTU21D;51062;45.120;37.660;2024-01-11T13:07:14;3.99;92.95
64652;HTU21D;51062;45.120;37.660;2024-01-11T13:09:41;3.99;92.95
64652;HTU21D;51062;45.120;37.660;2024-01-11T13:12:07;3.99;92.93
64652;HTU21D;51062;45.120;37.660;2024-01-11T13:14:33;3.99;92.92
64652;HTU21D;51062;45.120;37.660;2024-01-11T13:16:59;3.98;92.88
64652;HTU21D;51062;45.120;37.660;2024-01-11T13:19:25;3.95;92.88
64652;HTU21D;51062;45.120;37.660;2024-01-11T13:21:50;3.95;92.86
64652;HTU21D;51062;45.120;37.660;2024-01-11T13:24:17;3.92;92.82
64652;HTU21D;51062;45.120;37.660;2024-01-11T13:26:43;3.92;92.84
64652;HTU21D;51062;45.120;37.660;2024-01-11T13:29:09;3.90;92.86
64652;HTU21D;51062;45.120;37.660;2024-01-11T13:31:36;3.92;92.85
64652;HTU21D;51062;45.120;37.660;2024-01-11T13:34:02;3.90;92.81
64652;HTU21D;51062;45.120;37.660;2024-01-11T13:36:29;3.90;92.81
64652;HTU21D;51062;45.120;37.660;2024-01-11T13:38:54;3.89;92.76
64652;HTU21D;51062;45.120;37.660;2024-01-11T13:41:20;3.89;92.70
64652;HTU21D;51062;45.120;37.660;2024-01-11T13:43:46;3.88;92.71
64652;HTU21D;51062;45.120;37.660;2024-01-11T13:46:13;3.87;92.67
64652;HTU21D;51062;45.120;37.660;2024-01-11T13:48:42;3.85;92.64
64652;HTU21D;51062;45.120;37.660;2024-01-11T13:51:08;3.84;92.62
64652;HTU21D;51062;45.120;37.660;2024-01-11T13:53:35;3.82;92.64
64652;HTU21D;51062;45.120;37.660;2024-01-11T13:56:01;3.82;92.66
64652;HTU21D;51062;45.120;37.660;2024-01-11T13:58:27;3.79;92.61
64652;HTU21D;51062;45.120;37.660;2024-01-11T14:00:53;3.80;92.60
64652;HTU21D;51062;45.120;37.660;2024-01-11T14:03:19;3.79;92.63
64652;HTU21D;51062;45.120;37.660;2024-01-11T14:05:45;3.79;92.60
64652;HTU21D;51062;45.120;37.660;2024-01-11T14:08:11;3.76;92.53
64652;HTU21D;51062;45.120;37.660;2024-01-11T14:10:37;3.76;92.53
64652;HTU21D;51062;45.120;37.660;2024-01-11T14:13:03;3.74;92.54
64652;HTU21D;51062;45.120;37.660;2024-01-11T14:15:29;3.75;92.51
64652;HTU21D;51062;45.120;37.660;2024-01-11T14:17:55;3.74;92.50
64652;HTU21D;51062;45.120;37.660;2024-01-11T14:20:20;3.73;92.53
64652;HTU21D;51062;45.120;37.660;2024-01-11T14:22:46;3.73;92.52
64652;HTU21D;51062;45.120;37.660;2024-01-11T14:25:15;3.72;92.52
64652;HTU21D;51062;45.120;37.660;2024-01-11T14:27:41;3.71;92.53
64652;HTU21D;51062;45.120;37.660;2024-01-11T14:30:07;3.71;92.53
64652;HTU21D;51062;45.120;37.660;2024-01-11T14:32:33;3.73;92.56
64652;HTU21D;51062;45.120;37.660;2024-01-11T14:34:59;3.73;92.55
64652;HTU21D;51062;45.120;37.660;2024-01-11T14:37:33;3.74;92.57
64652;HTU21D;51062;45.120;37.660;2024-01-11T14:39:59;3.74;92.58
64652;HTU21D;51062;45.120;37.660;2024-01-11T14:42:25;3.75;92.59
64652;HTU21D;51062;45.120;37.660;2024-01-11T14:44:51;3.75;92.63
64652;HTU21D;51062;45.120;37.660;2024-01-11T14:47:18;3.76;92.61
64652;HTU21D;51062;45.120;37.660;2024-01-11T14:49:44;3.77;92.60
64652;HTU21D;51062;45.120;37.660;2024-01-11T14:52:09;3.76;92.56
64652;HTU21D;51062;45.120;37.660;2024-01-11T14:54:35;3.77;92.61
64652;HTU21D;51062;45.120;37.660;2024-01-11T14:57:01;3.80;92.64
64652;HTU21D;51062;45.120;37.660;2024-01-11T14:59:28;3.79;92.63
64652;HTU21D;51062;45.120;37.660;2024-01-11T15:01:53;3.80;92.61
64652;HTU21D;51062;45.120;37.660;2024-01-11T15:04:19;3.83;92.59
64652;HTU21D;51062;45.120;37.660;2024-01-11T15:06:47;3.84;92.59
64652;HTU21D;51062;45.120;37.660;2024-01-11T15:09:13;3.84;92.59